sensor_id;sensor_type;location;lat;lon;timestamp;P1;durP1;ratioP1;P2;durP2;ratioP2
22924;SDS011;11628;51.072;3.712;2023-02-20T00:00:06;33.13;;;17.50;;
22924;SDS011;11628;51.072;3.712;2023-02-20T00:02:39;29.23;;;16.85;;
22924;SDS011;11628;51.072;3.712;2023-02-20T00:05:05;34.60;;;18.33;;
22924;SDS011;11628;51.072;3.712;2023-02-20T00:07:31;34.47;;;18.77;;
22924;SDS011;11628;51.072;3.712;2023-02-20T00:09:57;28.25;;;17.42;;
22924;SDS011;11628;51.072;3.712;2023-02-20T00:12:23;30.27;;;16.83;;
22924;SDS011;11628;51.072;3.712;2023-02-20T00:14:49;30.55;;;17.38;;
22924;SDS011;11628;51.072;3.712;2023-02-20T00:17:15;33.00;;;17.10;;
22924;SDS011;11628;51.072;3.712;2023-02-20T00:19:41;25.67;;;16.45;;
22924;SDS011;11628;51.072;3.712;2023-02-20T00:22:07;26.20;;;15.77;;
22924;SDS011;11628;51.072;3.712;2023-02-20T00:24:33;28.35;;;15.95;;
22924;SDS011;11628;51.072;3.712;2023-02-20T00:26:59;27.27;;;15.15;;
22924;SDS011;11628;51.072;3.712;2023-02-20T00:29:24;27.77;;;15.23;;
22924;SDS011;11628;51.072;3.712;2023-02-20T00:31:54;30.80;;;15.48;;
22924;SDS011;11628;51.072;3.712;2023-02-20T00:34:22;24.38;;;13.88;;
22924;SDS011;11628;51.072;3.712;2023-02-20T00:36:50;26.17;;;13.57;;
22924;SDS011;11628;51.072;3.712;2023-02-20T00:39:16;29.58;;;14.80;;
22924;SDS011;11628;51.072;3.712;2023-02-20T00:41:42;31.85;;;16.65;;
22924;SDS011;11628;51.072;3.712;2023-02-20T00:44:08;23.65;;;13.23;;
22924;SDS011;11628;51.072;3.712;2023-02-20T00:46:34;27.58;;;13.93;;
22924;SDS011;11628;51.072;3.712;2023-02-20T00:49:00;23.55;;;13.63;;
22924;SDS011;11628;51.072;3.712;2023-02-20T00:51:26;26.05;;;13.52;;
22924;SDS011;11628;51.072;3.712;2023-02-20T00:53:53;28.25;;;14.55;;
22924;SDS011;11628;51.072;3.712;2023-02-20T00:56:19;26.80;;;13.52;;
22924;SDS011;11628;51.072;3.712;2023-02-20T00:58:45;34.13;;;14.75;;
22924;SDS011;11628;51.072;3.712;2023-02-20T01:01:12;22.95;;;11.73;;
22924;SDS011;11628;51.072;3.712;2023-02-20T01:03:39;27.05;;;12.68;;
22924;SDS011;11628;51.072;3.712;2023-02-20T01:06:05;25.02;;;12.77;;
22924;SDS011;11628;51.072;3.712;2023-02-20T01:08:31;23.45;;;12.98;;
22924;SDS011;11628;51.072;3.712;2023-02-20T01:10:57;22.33;;;12.05;;
22924;SDS011;11628;51.072;3.712;2023-02-20T01:13:23;25.13;;;12.45;;
22924;SDS011;11628;51.072;3.712;2023-02-20T01:15:49;28.48;;;13.73;;
22924;SDS011;11628;51.072;3.712;2023-02-20T01:18:15;29.08;;;13.55;;
22924;SDS011;11628;51.072;3.712;2023-02-20T01:20:42;23.77;;;11.95;;
22924;SDS011;11628;51.072;3.712;2023-02-20T01:23:08;24.20;;;13.63;;
22924;SDS011;11628;51.072;3.712;2023-02-20T01:25:34;23.23;;;12.35;;
22924;SDS011;11628;51.072;3.712;2023-02-20T01:28:00;24.90;;;11.95;;
22924;SDS011;11628;51.072;3.712;2023-02-20T01:30:27;29.17;;;12.65;;
22924;SDS011;11628;51.072;3.712;2023-02-20T01:32:52;28.55;;;12.07;;
22924;SDS011;11628;51.072;3.712;2023-02-20T01:35:18;22.15;;;12.23;;
22924;SDS011;11628;51.072;3.712;2023-02-20T01:37:44;22.27;;;13.00;;
22924;SDS011;11628;51.072;3.712;2023-02-20T01:40:16;25.20;;;13.13;;
22924;SDS011;11628;51.072;3.712;2023-02-20T01:42:45;24.83;;;13.25;;
22924;SDS011;11628;51.072;3.712;2023-02-20T01:45:16;22.50;;;12.82;;
22924;SDS011;11628;51.072;3.712;2023-02-20T01:47:49;29.88;;;14.60;;
22924;SDS011;11628;51.072;3.712;2023-02-20T01:50:17;27.83;;;13.98;;
22924;SDS011;11628;51.072;3.712;2023-02-20T01:52:47;26.13;;;13.95;;
22924;SDS011;11628;51.072;3.712;2023-02-20T01:55:21;22.52;;;12.18;;
22924;SDS011;11628;51.072;3.712;2023-02-20T01:57:52;25.95;;;12.52;;
22924;SDS011;11628;51.072;3.712;2023-02-20T02:00:30;22.00;;;12.40;;
22924;SDS011;11628;51.072;3.712;2023-02-20T02:05:33;24.65;;;11.27;;
22924;SDS011;11628;51.072;3.712;2023-02-20T02:08:02;32.78;;;12.93;;
22924;SDS011;11628;51.072;3.712;2023-02-20T02:10:38;19.98;;;11.00;;
22924;SDS011;11628;51.072;3.712;2023-02-20T02:13:08;24.50;;;10.07;;
22924;SDS011;11628;51.072;3.712;2023-02-20T02:15:35;26.73;;;10.90;;
22924;SDS011;11628;51.072;3.712;2023-02-20T02:18:03;20.08;;;11.10;;
22924;SDS011;11628;51.072;3.712;2023-02-20T02:45:56;23.50;;;10.48;;
22924;SDS011;11628;51.072;3.712;2023-02-20T02:48:51;19.60;;;9.55;;
22924;SDS011;11628;51.072;3.712;2023-02-20T02:51:24;23.33;;;8.73;;
22924;SDS011;11628;51.072;3.712;2023-02-20T02:54:03;18.08;;;9.02;;
22924;SDS011;11628;51.072;3.712;2023-02-20T02:56:33;20.83;;;8.20;;
22924;SDS011;11628;51.072;3.712;2023-02-20T02:59:02;16.52;;;7.03;;
22924;SDS011;11628;51.072;3.712;2023-02-20T03:01:32;16.70;;;7.93;;
22924;SDS011;11628;51.072;3.712;2023-02-20T03:04:02;21.17;;;9.38;;
22924;SDS011;11628;51.072;3.712;2023-02-20T03:06:31;18.67;;;8.43;;
22924;SDS011;11628;51.072;3.712;2023-02-20T03:09:05;26.83;;;8.60;;
22924;SDS011;11628;51.072;3.712;2023-02-20T03:11:36;25.50;;;9.02;;
22924;SDS011;11628;51.072;3.712;2023-02-20T03:14:04;16.73;;;8.00;;
22924;SDS011;11628;51.072;3.712;2023-02-20T03:20:02;17.25;;;9.00;;
22924;SDS011;11628;51.072;3.712;2023-02-20T03:22:37;19.33;;;9.80;;
22924;SDS011;11628;51.072;3.712;2023-02-20T03:25:16;18.20;;;9.25;;
22924;SDS011;11628;51.072;3.712;2023-02-20T03:27:57;25.75;;;10.32;;
22924;SDS011;11628;51.072;3.712;2023-02-20T03:33:07;23.67;;;10.90;;
22924;SDS011;11628;51.072;3.712;2023-02-20T03:35:59;22.05;;;9.73;;
22924;SDS011;11628;51.072;3.712;2023-02-20T03:38:49;27.67;;;10.77;;
22924;SDS011;11628;51.072;3.712;2023-02-20T03:41:37;23.35;;;10.55;;
22924;SDS011;11628;51.072;3.712;2023-02-20T03:44:23;23.88;;;12.38;;
22924;SDS011;11628;51.072;3.712;2023-02-20T03:46:51;35.53;;;13.57;;
22924;SDS011;11628;51.072;3.712;2023-02-20T03:49:20;23.88;;;12.10;;
22924;SDS011;11628;51.072;3.712;2023-02-20T03:51:49;18.73;;;11.20;;
22924;SDS011;11628;51.072;3.712;2023-02-20T03:54:21;21.85;;;10.63;;
22924;SDS011;11628;51.072;3.712;2023-02-20T03:56:48;27.80;;;12.07;;
22924;SDS011;11628;51.072;3.712;2023-02-20T03:59:21;22.13;;;11.90;;
22924;SDS011;11628;51.072;3.712;2023-02-20T04:01:56;21.52;;;10.75;;
22924;SDS011;11628;51.072;3.712;2023-02-20T04:04:32;29.88;;;12.65;;
22924;SDS011;11628;51.072;3.712;2023-02-20T04:07:03;22.58;;;11.65;;
22924;SDS011;11628;51.072;3.712;2023-02-20T04:09:34;23.23;;;11.98;;
22924;SDS011;11628;51.072;3.712;2023-02-20T04:12:07;23.63;;;11.82;;
22924;SDS011;11628;51.072;3.712;2023-02-20T04:14:43;23.70;;;11.35;;
22924;SDS011;11628;51.072;3.712;2023-02-20T04:17:12;28.95;;;13.23;;
22924;SDS011;11628;51.072;3.712;2023-02-20T04:19:44;20.93;;;11.60;;
22924;SDS011;11628;51.072;3.712;2023-02-20T04:22:11;27.17;;;11.23;;
22924;SDS011;11628;51.072;3.712;2023-02-20T04:24:43;25.30;;;11.27;;
22924;SDS011;11628;51.072;3.712;2023-02-20T04:27:18;25.23;;;12.00;;
22924;SDS011;11628;51.072;3.712;2023-02-20T04:29:46;22.88;;;12.00;;
22924;SDS011;11628;51.072;3.712;2023-02-20T04:32:12;21.17;;;11.48;;
22924;SDS011;11628;51.072;3.712;2023-02-20T04:34:38;23.58;;;12.38;;
22924;SDS011;11628;51.072;3.712;2023-02-20T04:37:08;20.30;;;11.82;;
22924;SDS011;11628;51.072;3.712;2023-02-20T04:39:36;18.63;;;11.13;;
22924;SDS011;11628;51.072;3.712;2023-02-20T04:42:03;22.40;;;11.95;;
22924;SDS011;11628;51.072;3.712;2023-02-20T04:44:29;18.33;;;11.68;;
22924;SDS011;11628;51.072;3.712;2023-02-20T04:47:02;18.88;;;10.43;;
22924;SDS011;11628;51.072;3.712;2023-02-20T04:49:30;16.52;;;10.75;;
22924;SDS011;11628;51.072;3.712;2023-02-20T04:51:56;25.30;;;10.85;;
22924;SDS011;11628;51.072;3.712;2023-02-20T04:54:22;23.58;;;10.77;;
22924;SDS011;11628;51.072;3.712;2023-02-20T04:56:50;20.73;;;11.65;;
22924;SDS011;11628;51.072;3.712;2023-02-20T04:59:16;16.10;;;11.15;;
22924;SDS011;11628;51.072;3.712;2023-02-20T05:01:42;22.67;;;12.05;;
22924;SDS011;11628;51.072;3.712;2023-02-20T05:04:12;22.75;;;10.90;;
22924;SDS011;11628;51.072;3.712;2023-02-20T05:06:44;22.70;;;10.68;;
22924;SDS011;11628;51.072;3.712;2023-02-20T05:09:12;20.50;;;11.45;;
22924;SDS011;11628;51.072;3.712;2023-02-20T05:11:38;18.77;;;10.60;;
22924;SDS011;11628;51.072;3.712;2023-02-20T05:14:06;25.63;;;11.32;;
22924;SDS011;11628;51.072;3.712;2023-02-20T05:16:32;23.02;;;10.70;;
22924;SDS011;11628;51.072;3.712;2023-02-20T05:18:59;21.30;;;9.43;;
22924;SDS011;11628;51.072;3.712;2023-02-20T05:21:26;23.95;;;11.32;;
22924;SDS011;11628;51.072;3.712;2023-02-20T05:24:11;21.05;;;10.18;;
22924;SDS011;11628;51.072;3.712;2023-02-20T05:26:36;17.75;;;9.90;;
22924;SDS011;11628;51.072;3.712;2023-02-20T05:29:03;17.52;;;9.88;;
22924;SDS011;11628;51.072;3.712;2023-02-20T05:31:30;16.58;;;10.20;;
22924;SDS011;11628;51.072;3.712;2023-02-20T05:33:58;17.27;;;8.95;;
22924;SDS011;11628;51.072;3.712;2023-02-20T05:36:23;16.55;;;9.60;;
22924;SDS011;11628;51.072;3.712;2023-02-20T05:38:49;21.98;;;10.48;;
22924;SDS011;11628;51.072;3.712;2023-02-20T05:41:16;14.98;;;8.50;;
22924;SDS011;11628;51.072;3.712;2023-02-20T05:43:42;16.10;;;9.20;;
22924;SDS011;11628;51.072;3.712;2023-02-20T05:46:09;16.05;;;8.55;;
22924;SDS011;11628;51.072;3.712;2023-02-20T05:48:36;14.05;;;7.80;;
22924;SDS011;11628;51.072;3.712;2023-02-20T05:51:01;15.98;;;7.70;;
22924;SDS011;11628;51.072;3.712;2023-02-20T05:53:28;14.25;;;8.07;;
22924;SDS011;11628;51.072;3.712;2023-02-20T05:55:55;20.63;;;8.80;;
22924;SDS011;11628;51.072;3.712;2023-02-20T05:58:21;16.38;;;8.68;;
22924;SDS011;11628;51.072;3.712;2023-02-20T06:00:48;17.15;;;9.60;;
22924;SDS011;11628;51.072;3.712;2023-02-20T06:03:14;16.52;;;8.90;;
22924;SDS011;11628;51.072;3.712;2023-02-20T06:05:41;20.17;;;9.35;;
22924;SDS011;11628;51.072;3.712;2023-02-20T06:08:08;18.02;;;8.82;;
22924;SDS011;11628;51.072;3.712;2023-02-20T06:10:33;19.38;;;9.35;;
22924;SDS011;11628;51.072;3.712;2023-02-20T06:13:00;18.05;;;9.35;;
22924;SDS011;11628;51.072;3.712;2023-02-20T06:15:26;18.63;;;9.25;;
22924;SDS011;11628;51.072;3.712;2023-02-20T06:17:53;17.95;;;9.00;;
22924;SDS011;11628;51.072;3.712;2023-02-20T06:20:23;20.05;;;9.73;;
22924;SDS011;11628;51.072;3.712;2023-02-20T06:22:49;21.00;;;10.27;;
22924;SDS011;11628;51.072;3.712;2023-02-20T06:25:15;20.20;;;10.88;;
22924;SDS011;11628;51.072;3.712;2023-02-20T06:27:41;21.98;;;10.52;;
22924;SDS011;11628;51.072;3.712;2023-02-20T06:30:08;18.00;;;10.73;;
22924;SDS011;11628;51.072;3.712;2023-02-20T06:32:34;17.70;;;10.88;;
22924;SDS011;11628;51.072;3.712;2023-02-20T06:35:00;20.67;;;11.65;;
22924;SDS011;11628;51.072;3.712;2023-02-20T06:37:26;20.25;;;11.70;;
22924;SDS011;11628;51.072;3.712;2023-02-20T06:39:53;17.58;;;11.05;;
22924;SDS011;11628;51.072;3.712;2023-02-20T06:42:20;18.02;;;11.68;;
22924;SDS011;11628;51.072;3.712;2023-02-20T06:44:46;19.27;;;11.90;;
22924;SDS011;11628;51.072;3.712;2023-02-20T06:47:11;20.60;;;11.45;;
22924;SDS011;11628;51.072;3.712;2023-02-20T06:49:37;24.20;;;11.95;;
22924;SDS011;11628;51.072;3.712;2023-02-20T06:52:05;23.83;;;13.05;;
22924;SDS011;11628;51.072;3.712;2023-02-20T06:54:32;16.25;;;11.13;;
22924;SDS011;11628;51.072;3.712;2023-02-20T06:56:58;21.80;;;11.98;;
22924;SDS011;11628;51.072;3.712;2023-02-20T06:59:25;21.70;;;12.52;;
22924;SDS011;11628;51.072;3.712;2023-02-20T07:01:51;22.45;;;12.70;;
22924;SDS011;11628;51.072;3.712;2023-02-20T07:04:18;20.48;;;12.38;;
22924;SDS011;11628;51.072;3.712;2023-02-20T07:06:45;18.33;;;10.55;;
22924;SDS011;11628;51.072;3.712;2023-02-20T07:09:12;18.77;;;12.80;;
22924;SDS011;11628;51.072;3.712;2023-02-20T07:11:38;17.13;;;11.57;;
22924;SDS011;11628;51.072;3.712;2023-02-20T07:14:04;19.65;;;12.30;;
22924;SDS011;11628;51.072;3.712;2023-02-20T07:16:30;23.25;;;13.65;;
22924;SDS011;11628;51.072;3.712;2023-02-20T07:18:56;21.23;;;13.27;;
22924;SDS011;11628;51.072;3.712;2023-02-20T07:21:22;21.08;;;11.75;;
22924;SDS011;11628;51.072;3.712;2023-02-20T07:23:48;18.55;;;11.43;;
22924;SDS011;11628;51.072;3.712;2023-02-20T07:26:24;20.88;;;11.32;;
22924;SDS011;11628;51.072;3.712;2023-02-20T07:28:52;19.00;;;10.98;;
22924;SDS011;11628;51.072;3.712;2023-02-20T07:31:18;21.08;;;12.65;;
22924;SDS011;11628;51.072;3.712;2023-02-20T07:33:45;15.52;;;12.35;;
22924;SDS011;11628;51.072;3.712;2023-02-20T07:36:12;23.20;;;13.43;;
22924;SDS011;11628;51.072;3.712;2023-02-20T07:38:38;19.05;;;12.85;;
22924;SDS011;11628;51.072;3.712;2023-02-20T07:41:05;22.00;;;13.02;;
22924;SDS011;11628;51.072;3.712;2023-02-20T07:43:31;23.17;;;13.35;;
22924;SDS011;11628;51.072;3.712;2023-02-20T07:45:57;24.17;;;13.88;;
22924;SDS011;11628;51.072;3.712;2023-02-20T07:48:23;27.35;;;16.13;;
22924;SDS011;11628;51.072;3.712;2023-02-20T07:50:49;26.52;;;15.27;;
22924;SDS011;11628;51.072;3.712;2023-02-20T07:53:17;24.08;;;15.88;;
22924;SDS011;11628;51.072;3.712;2023-02-20T07:55:44;27.23;;;15.85;;
22924;SDS011;11628;51.072;3.712;2023-02-20T07:58:10;26.60;;;15.70;;
22924;SDS011;11628;51.072;3.712;2023-02-20T08:00:36;23.58;;;16.02;;
22924;SDS011;11628;51.072;3.712;2023-02-20T08:03:02;24.02;;;15.23;;
22924;SDS011;11628;51.072;3.712;2023-02-20T08:05:28;27.33;;;16.65;;
22924;SDS011;11628;51.072;3.712;2023-02-20T08:07:55;24.48;;;16.40;;
22924;SDS011;11628;51.072;3.712;2023-02-20T08:10:22;30.50;;;16.75;;
22924;SDS011;11628;51.072;3.712;2023-02-20T08:12:51;22.58;;;15.88;;
22924;SDS011;11628;51.072;3.712;2023-02-20T08:15:18;21.92;;;14.95;;
22924;SDS011;11628;51.072;3.712;2023-02-20T08:17:45;27.63;;;18.60;;
22924;SDS011;11628;51.072;3.712;2023-02-20T08:20:12;26.40;;;16.35;;
22924;SDS011;11628;51.072;3.712;2023-02-20T08:22:45;26.70;;;15.98;;
22924;SDS011;11628;51.072;3.712;2023-02-20T08:25:11;26.33;;;17.33;;
22924;SDS011;11628;51.072;3.712;2023-02-20T08:27:45;26.17;;;16.40;;
22924;SDS011;11628;51.072;3.712;2023-02-20T08:30:14;29.52;;;16.95;;
22924;SDS011;11628;51.072;3.712;2023-02-20T08:32:43;23.48;;;15.73;;
22924;SDS011;11628;51.072;3.712;2023-02-20T08:35:09;23.52;;;15.80;;
22924;SDS011;11628;51.072;3.712;2023-02-20T08:37:35;26.20;;;16.55;;
22924;SDS011;11628;51.072;3.712;2023-02-20T08:40:01;25.20;;;16.42;;
22924;SDS011;11628;51.072;3.712;2023-02-20T08:42:30;30.00;;;16.85;;
22924;SDS011;11628;51.072;3.712;2023-02-20T08:44:57;22.92;;;16.08;;
22924;SDS011;11628;51.072;3.712;2023-02-20T08:47:23;33.92;;;18.15;;
22924;SDS011;11628;51.072;3.712;2023-02-20T08:49:49;24.98;;;17.23;;
22924;SDS011;11628;51.072;3.712;2023-02-20T08:52:16;27.13;;;16.27;;
22924;SDS011;11628;51.072;3.712;2023-02-20T08:54:45;23.00;;;15.82;;
22924;SDS011;11628;51.072;3.712;2023-02-20T08:57:12;24.95;;;16.65;;
22924;SDS011;11628;51.072;3.712;2023-02-20T08:59:40;23.98;;;16.38;;
22924;SDS011;11628;51.072;3.712;2023-02-20T09:02:07;26.45;;;16.60;;
22924;SDS011;11628;51.072;3.712;2023-02-20T09:04:42;25.02;;;15.38;;
22924;SDS011;11628;51.072;3.712;2023-02-20T09:07:09;27.55;;;14.68;;
22924;SDS011;11628;51.072;3.712;2023-02-20T09:09:35;20.25;;;13.85;;
22924;SDS011;11628;51.072;3.712;2023-02-20T09:12:00;20.65;;;14.45;;
22924;SDS011;11628;51.072;3.712;2023-02-20T09:14:26;25.30;;;12.52;;
22924;SDS011;11628;51.072;3.712;2023-02-20T09:16:52;22.30;;;13.95;;
22924;SDS011;11628;51.072;3.712;2023-02-20T09:19:18;30.45;;;14.70;;
22924;SDS011;11628;51.072;3.712;2023-02-20T09:21:45;21.80;;;13.32;;
22924;SDS011;11628;51.072;3.712;2023-02-20T09:24:12;24.75;;;13.25;;
22924;SDS011;11628;51.072;3.712;2023-02-20T09:26:38;22.17;;;13.82;;
22924;SDS011;11628;51.072;3.712;2023-02-20T09:29:04;20.23;;;12.60;;
22924;SDS011;11628;51.072;3.712;2023-02-20T09:31:29;22.90;;;14.05;;
22924;SDS011;11628;51.072;3.712;2023-02-20T09:33:55;23.08;;;15.50;;
22924;SDS011;11628;51.072;3.712;2023-02-20T09:36:22;26.98;;;14.77;;
22924;SDS011;11628;51.072;3.712;2023-02-20T09:38:48;24.80;;;14.75;;
22924;SDS011;11628;51.072;3.712;2023-02-20T09:41:20;22.20;;;14.15;;
22924;SDS011;11628;51.072;3.712;2023-02-20T09:44:00;21.13;;;14.80;;
22924;SDS011;11628;51.072;3.712;2023-02-20T09:46:37;23.23;;;13.77;;
22924;SDS011;11628;51.072;3.712;2023-02-20T09:51:44;25.27;;;15.38;;
22924;SDS011;11628;51.072;3.712;2023-02-20T09:54:33;20.48;;;14.40;;
22924;SDS011;11628;51.072;3.712;2023-02-20T09:57:05;23.30;;;13.30;;
22924;SDS011;11628;51.072;3.712;2023-02-20T09:59:46;20.17;;;13.40;;
22924;SDS011;11628;51.072;3.712;2023-02-20T10:02:24;21.75;;;13.48;;
22924;SDS011;11628;51.072;3.712;2023-02-20T10:04:56;21.65;;;13.95;;
22924;SDS011;11628;51.072;3.712;2023-02-20T10:07:27;22.83;;;14.65;;
22924;SDS011;11628;51.072;3.712;2023-02-20T10:10:30;23.40;;;14.60;;
22924;SDS011;11628;51.072;3.712;2023-02-20T10:15:51;18.80;;;13.55;;
22924;SDS011;11628;51.072;3.712;2023-02-20T10:18:31;37.28;;;23.50;;
22924;SDS011;11628;51.072;3.712;2023-02-20T10:21:07;85.82;;;38.13;;
22924;SDS011;11628;51.072;3.712;2023-02-20T10:24:08;44.53;;;33.00;;
22924;SDS011;11628;51.072;3.712;2023-02-20T10:26:39;23.90;;;15.18;;
22924;SDS011;11628;51.072;3.712;2023-02-20T10:29:15;19.33;;;13.63;;
22924;SDS011;11628;51.072;3.712;2023-02-20T10:34:24;30.42;;;16.65;;
22924;SDS011;11628;51.072;3.712;2023-02-20T10:37:14;20.85;;;14.30;;
22924;SDS011;11628;51.072;3.712;2023-02-20T10:39:51;21.13;;;14.73;;
22924;SDS011;11628;51.072;3.712;2023-02-20T10:42:27;21.85;;;15.50;;
22924;SDS011;11628;51.072;3.712;2023-02-20T10:45:02;25.55;;;14.23;;
22924;SDS011;11628;51.072;3.712;2023-02-20T10:47:48;21.50;;;12.93;;
22924;SDS011;11628;51.072;3.712;2023-02-20T10:53:07;19.17;;;11.05;;
22924;SDS011;11628;51.072;3.712;2023-02-20T10:55:51;14.18;;;8.40;;
22924;SDS011;11628;51.072;3.712;2023-02-20T11:01:05;15.50;;;7.65;;
22924;SDS011;11628;51.072;3.712;2023-02-20T11:03:43;14.20;;;7.85;;
22924;SDS011;11628;51.072;3.712;2023-02-20T11:06:20;12.85;;;7.25;;
22924;SDS011;11628;51.072;3.712;2023-02-20T11:08:49;13.70;;;8.88;;
22924;SDS011;11628;51.072;3.712;2023-02-20T11:11:18;12.57;;;6.97;;
22924;SDS011;11628;51.072;3.712;2023-02-20T11:13:52;11.88;;;8.13;;
22924;SDS011;11628;51.072;3.712;2023-02-20T11:16:27;10.95;;;7.47;;
22924;SDS011;11628;51.072;3.712;2023-02-20T11:19:02;12.70;;;7.25;;
22924;SDS011;11628;51.072;3.712;2023-02-20T11:21:55;20.25;;;11.15;;
22924;SDS011;11628;51.072;3.712;2023-02-20T11:26:48;19.35;;;13.30;;
22924;SDS011;11628;51.072;3.712;2023-02-20T11:29:17;19.60;;;13.77;;
22924;SDS011;11628;51.072;3.712;2023-02-20T11:31:45;19.65;;;13.20;;
22924;SDS011;11628;51.072;3.712;2023-02-20T11:34:20;16.98;;;10.93;;
22924;SDS011;11628;51.072;3.712;2023-02-20T11:36:52;16.70;;;10.90;;
22924;SDS011;11628;51.072;3.712;2023-02-20T11:39:21;14.70;;;9.27;;
22924;SDS011;11628;51.072;3.712;2023-02-20T11:42:12;13.48;;;7.60;;
22924;SDS011;11628;51.072;3.712;2023-02-20T11:44:41;16.70;;;8.27;;
22924;SDS011;11628;51.072;3.712;2023-02-20T11:47:16;15.05;;;9.85;;
22924;SDS011;11628;51.072;3.712;2023-02-20T11:49:43;16.77;;;10.00;;
22924;SDS011;11628;51.072;3.712;2023-02-20T11:52:20;20.08;;;10.60;;
22924;SDS011;11628;51.072;3.712;2023-02-20T11:55:07;19.20;;;11.60;;
22924;SDS011;11628;51.072;3.712;2023-02-20T11:57:44;21.23;;;13.68;;
22924;SDS011;11628;51.072;3.712;2023-02-20T12:05:13;14.98;;;11.20;;
22924;SDS011;11628;51.072;3.712;2023-02-20T12:08:01;15.52;;;11.48;;
22924;SDS011;11628;51.072;3.712;2023-02-20T12:13:02;17.75;;;11.60;;
22924;SDS011;11628;51.072;3.712;2023-02-20T12:15:29;18.50;;;12.55;;
22924;SDS011;11628;51.072;3.712;2023-02-20T12:20:43;20.23;;;11.80;;
22924;SDS011;11628;51.072;3.712;2023-02-20T12:26:15;20.52;;;12.40;;
22924;SDS011;11628;51.072;3.712;2023-02-20T12:29:21;16.65;;;11.88;;
22924;SDS011;11628;51.072;3.712;2023-02-20T12:32:18;20.27;;;13.18;;
22924;SDS011;11628;51.072;3.712;2023-02-20T12:37:58;23.00;;;13.20;;
22924;SDS011;11628;51.072;3.712;2023-02-20T12:48:41;22.55;;;13.07;;
22924;SDS011;11628;51.072;3.712;2023-02-20T12:51:16;20.15;;;12.27;;
22924;SDS011;11628;51.072;3.712;2023-02-20T13:02:50;16.67;;;11.23;;
22924;SDS011;11628;51.072;3.712;2023-02-20T13:05:21;15.85;;;9.40;;
22924;SDS011;11628;51.072;3.712;2023-02-20T13:07:57;15.25;;;10.18;;
22924;SDS011;11628;51.072;3.712;2023-02-20T13:10:31;12.50;;;9.35;;
22924;SDS011;11628;51.072;3.712;2023-02-20T13:13:17;13.15;;;8.27;;
22924;SDS011;11628;51.072;3.712;2023-02-20T13:15:57;10.52;;;8.68;;
22924;SDS011;11628;51.072;3.712;2023-02-20T13:18:56;12.05;;;9.93;;
22924;SDS011;11628;51.072;3.712;2023-02-20T13:21:29;17.40;;;12.57;;
22924;SDS011;11628;51.072;3.712;2023-02-20T13:26:43;21.55;;;13.95;;
22924;SDS011;11628;51.072;3.712;2023-02-20T13:31:51;20.88;;;13.15;;
22924;SDS011;11628;51.072;3.712;2023-02-20T13:34:27;17.05;;;11.82;;
22924;SDS011;11628;51.072;3.712;2023-02-20T13:36:57;22.55;;;11.90;;
22924;SDS011;11628;51.072;3.712;2023-02-20T13:44:42;11.05;;;8.55;;
22924;SDS011;11628;51.072;3.712;2023-02-20T14:03:19;13.00;;;9.52;;
22924;SDS011;11628;51.072;3.712;2023-02-20T14:06:06;21.20;;;10.95;;
22924;SDS011;11628;51.072;3.712;2023-02-20T14:08:38;13.38;;;10.93;;
22924;SDS011;11628;51.072;3.712;2023-02-20T14:11:07;13.88;;;9.05;;
22924;SDS011;11628;51.072;3.712;2023-02-20T14:13:35;15.57;;;11.18;;
22924;SDS011;11628;51.072;3.712;2023-02-20T14:16:03;13.52;;;9.93;;
22924;SDS011;11628;51.072;3.712;2023-02-20T14:19:00;14.88;;;10.57;;
22924;SDS011;11628;51.072;3.712;2023-02-20T14:21:31;14.80;;;10.15;;
22924;SDS011;11628;51.072;3.712;2023-02-20T14:24:03;13.95;;;9.32;;
22924;SDS011;11628;51.072;3.712;2023-02-20T14:26:42;14.90;;;8.90;;
22924;SDS011;11628;51.072;3.712;2023-02-20T14:29:18;12.88;;;8.55;;
22924;SDS011;11628;51.072;3.712;2023-02-20T14:31:59;13.68;;;8.32;;
22924;SDS011;11628;51.072;3.712;2023-02-20T14:40:21;20.38;;;8.77;;
22924;SDS011;11628;51.072;3.712;2023-02-20T14:43:00;14.63;;;9.40;;
22924;SDS011;11628;51.072;3.712;2023-02-20T14:45:28;16.25;;;8.75;;
22924;SDS011;11628;51.072;3.712;2023-02-20T14:50:25;14.48;;;9.13;;
22924;SDS011;11628;51.072;3.712;2023-02-20T14:53:00;15.32;;;8.70;;
22924;SDS011;11628;51.072;3.712;2023-02-20T14:55:27;13.77;;;8.18;;
22924;SDS011;11628;51.072;3.712;2023-02-20T14:57:53;15.40;;;9.02;;
22924;SDS011;11628;51.072;3.712;2023-02-20T15:02:51;14.00;;;9.43;;
22924;SDS011;11628;51.072;3.712;2023-02-20T15:05:28;11.63;;;8.65;;
22924;SDS011;11628;51.072;3.712;2023-02-20T15:08:01;12.77;;;9.07;;
22924;SDS011;11628;51.072;3.712;2023-02-20T15:10:37;16.33;;;9.52;;
22924;SDS011;11628;51.072;3.712;2023-02-20T15:13:15;15.32;;;9.90;;
22924;SDS011;11628;51.072;3.712;2023-02-20T15:15:50;15.95;;;9.40;;
22924;SDS011;11628;51.072;3.712;2023-02-20T15:18:32;15.00;;;9.43;;
22924;SDS011;11628;51.072;3.712;2023-02-20T15:21:00;11.57;;;8.85;;
22924;SDS011;11628;51.072;3.712;2023-02-20T15:25:53;10.98;;;7.55;;
22924;SDS011;11628;51.072;3.712;2023-02-20T15:33:30;16.63;;;7.85;;
22924;SDS011;11628;51.072;3.712;2023-02-20T15:35:58;9.43;;;7.80;;
22924;SDS011;11628;51.072;3.712;2023-02-20T15:38:29;12.30;;;8.68;;
22924;SDS011;11628;51.072;3.712;2023-02-20T15:40:57;11.13;;;8.07;;
22924;SDS011;11628;51.072;3.712;2023-02-20T15:43:25;10.85;;;7.35;;
22924;SDS011;11628;51.072;3.712;2023-02-20T15:45:51;11.93;;;8.18;;
22924;SDS011;11628;51.072;3.712;2023-02-20T15:48:18;13.60;;;7.57;;
22924;SDS011;11628;51.072;3.712;2023-02-20T15:50:45;11.90;;;8.38;;
22924;SDS011;11628;51.072;3.712;2023-02-20T15:53:22;12.63;;;9.05;;
22924;SDS011;11628;51.072;3.712;2023-02-20T15:55:53;12.27;;;8.18;;
22924;SDS011;11628;51.072;3.712;2023-02-20T15:58:27;10.98;;;8.43;;
22924;SDS011;11628;51.072;3.712;2023-02-20T16:00:55;10.10;;;7.78;;
22924;SDS011;11628;51.072;3.712;2023-02-20T16:03:25;14.13;;;9.25;;
22924;SDS011;11628;51.072;3.712;2023-02-20T16:05:52;14.98;;;9.30;;
22924;SDS011;11628;51.072;3.712;2023-02-20T16:08:19;14.27;;;9.10;;
22924;SDS011;11628;51.072;3.712;2023-02-20T16:10:45;18.55;;;11.80;;
22924;SDS011;11628;51.072;3.712;2023-02-20T16:13:45;17.27;;;10.63;;
22924;SDS011;11628;51.072;3.712;2023-02-20T16:16:08;12.00;;;10.18;;
22924;SDS011;11628;51.072;3.712;2023-02-20T16:18:42;13.95;;;10.45;;
22924;SDS011;11628;51.072;3.712;2023-02-20T16:21:09;13.18;;;11.55;;
22924;SDS011;11628;51.072;3.712;2023-02-20T16:23:37;14.02;;;12.52;;
22924;SDS011;11628;51.072;3.712;2023-02-20T16:26:05;17.15;;;13.93;;
22924;SDS011;11628;51.072;3.712;2023-02-20T16:28:31;15.35;;;13.05;;
22924;SDS011;11628;51.072;3.712;2023-02-20T16:30:58;17.85;;;13.43;;
22924;SDS011;11628;51.072;3.712;2023-02-20T16:33:24;16.88;;;14.27;;
22924;SDS011;11628;51.072;3.712;2023-02-20T16:35:50;14.57;;;13.02;;
22924;SDS011;11628;51.072;3.712;2023-02-20T16:38:16;16.83;;;13.68;;
22924;SDS011;11628;51.072;3.712;2023-02-20T16:40:44;18.55;;;13.85;;
22924;SDS011;11628;51.072;3.712;2023-02-20T16:43:14;16.85;;;13.25;;
22924;SDS011;11628;51.072;3.712;2023-02-20T16:45:40;14.13;;;12.57;;
22924;SDS011;11628;51.072;3.712;2023-02-20T16:48:18;20.10;;;14.35;;
22924;SDS011;11628;51.072;3.712;2023-02-20T16:50:49;16.80;;;13.52;;
22924;SDS011;11628;51.072;3.712;2023-02-20T16:53:17;18.65;;;14.05;;